Oliver Schäfer

Chief Scout - Bayer Leverkusen
9 Oct 2027
Saturday
Process

Personality

Adaptability (12) Ambition (16) Controversy (12) Loyalty (3) Pressure (5) Professionalism (14) Sportsmanship (11) Temperament (16)

Profile

Coaching Style Democratic
License Continental Pro
Determination 10
Man Management 14
Motivating 8
Discipline 11
Job Satisfaction
80%
Fatigue
0%
Role Chief Scout
Wage 50.3K p/w
Contract 14.03.2030

Performance

Behaviour Good
Training Effectiveness
48%
Player Development
80%
Injury Prevention
40%
Tactical Implementation
80%

Recent Events

Attended a recruitment meeting now
Attended a recruitment meeting now
Recommended a transfer target now
Recommended a transfer target now
Recommended a transfer target now
Recommended a transfer target now
Assessed a player now
Assessed a player now

Currently Monitoring

200
Player Club Status Ability Confidence Watched Last Observed Latest Vote
Jaydee Canvot Liverpool Active 139 / 145 40% 4 08.10.2027 -
Ayden Heaven Sheffield Wednesday Active 142 / 149 40% 2 08.10.2027 -
Josh Acheampong Oxford United Active 143 / 145 40% 1 08.10.2027 -
Finn Jeltsch VfB Stuttgart Active 140 / 148 40% 4 07.10.2027 -
Halam Loboa Independiente Medellin Active 119 / 123 40% 8 07.10.2027 -
Kenan Busuladžić Malmo FF Active 117 / 123 40% 2 07.10.2027 -
Karim Coulibaly RC Strasbourg Active 128 / 132 40% 4 06.10.2027 -
Bruno Ogbus Borussia Dortmund Active 133 / 133 40% 1 06.10.2027 -
Héctor Fort Real Sociedad Active 136 / 142 40% 11 05.10.2027 -
Matteo Palma Udinese Active 121 / 134 40% 3 05.10.2027 -
Kjell Wätjen Brondby Active 120 / 128 40% 2 05.10.2027 -
Fodé Sylla Sion Active 123 / 127 40% 5 03.10.2027 -
Honest Ahanor Atalanta Active 130 / 140 40% 1 03.10.2027 -
Matias Siltanen Malmo FF Active 122 / 130 40% 5 01.10.2027 -
Warren Zaïre-Emery Paris Saint-Germain Active 156 / 167 40% 9 30.09.2027 -
Dayann Methalie Everton Active 132 / 142 40% 1 30.09.2027 -
Nathan De Cat VfL Wolfsburg Active 129 / 138 40% 1 30.09.2027 -
Ayyoub Bouaddi Blackpool Active 141 / 152 40% 6 28.09.2027 -
Juan Manuel Villalba Boca Juniors Active 118 / 129 40% 3 28.09.2027 -
Agustín Medina Lanús Active 121 / 125 40% 3 28.09.2027 -
Archie Gray Leicester City Active 148 / 155 40% 3 27.09.2027 -
Kosta Nedeljković Aston Villa Active 133 / 139 40% 7 24.09.2027 -
Jonas Harder Basel Active 117 / 124 40% 3 24.09.2027 -
Jorrel Hato Chelsea Active 155 / 158 40% 6 23.09.2027 -
Leny Yoro Monaco Active 150 / 156 40% 10 22.09.2027 -
Andrej Bačanin Grasshopper Active 111 / 122 40% 2 22.09.2027 -
Biel La Equidad Active 107 / 125 40% 2 19.09.2027 -
Corsin Konietzke St. Gallen Active 118 / 123 40% 5 16.09.2027 -
Lewis Miley Birmingham Active 144 / 154 40% 1 16.09.2027 -
Kauã Moraes Cruzeiro Active 124 / 133 40% 1 14.09.2027 -
Taylan Bulut Basaksehir Active 121 / 129 40% 5 11.09.2027 -
Mbekezeli Mbokazi Chicago Fire Active 137 / 130 40% 4 11.09.2027 -
Juma Bah Manchester City Active 124 / 134 40% 2 10.09.2027 -
Marc Bernal Valladolid Active 150 / 153 40% 2 08.09.2027 -
Dejan Radonjić Red Bull Salzburg Active 117 / 125 40% 1 30.08.2027 -
Khalid Abdulrahman Al Shabab Lost 156 / 143 40% 1 30.08.2027 -
Brais Méndez Columbus Crew Active 154 / 148 40% 1 30.08.2027 -
Pedro Malheiro Al Wasl Active 137 / 143 40% 1 30.08.2027 -
Lucas Bergvall Tottenham Active 144 / 153 40% 2 27.08.2027 -
Luis Díaz Bayern Munich Active 163 / 164 40% 8 24.08.2027 -
Ousmane Dembélé Paris Saint-Germain Active 189 / 185 40% 1 24.08.2027 -
Ritsu Doan Gamba Osaka Lost 150 / 148 40% 1 24.08.2027 -
Joey Veerman Borussia Dortmund Active 155 / 153 40% 1 22.08.2027 -
Benjamin Henrichs RB Leipzig Active 157 / 152 40% 1 22.08.2027 -
Joane Gadou Köln Active 132 / 137 40% 1 22.08.2027 -
Felix Nmecha Borussia Dortmund Active 171 / 165 40% 4 20.08.2027 -
Luiz Henrique VfB Stuttgart Active 149 / 148 40% 3 20.08.2027 -
Luís Henrique Inter Active 146 / 145 40% 1 20.08.2027 -
Alphonso Davies Bayern Munich Active 161 / 168 40% 4 19.08.2027 -
Manu Koné AS Roma Active 168 / 166 40% 1 19.08.2027 -
Maximilian Beier Borussia Dortmund Active 163 / 159 40% 1 19.08.2027 -
Tim Lemperle TSG Hoffenheim Active 146 / 149 40% 9 18.08.2027 -
Nicolò Barella Inter Active 172 / 168 40% 1 17.08.2027 -
Romano Schmid Frosinone Active 150 / 144 40% 1 17.08.2027 -
Arjan Malić Red Bull Salzburg Active 126 / 124 40% 1 17.08.2027 -
Takefusa Kubo Real Sociedad Active 162 / 157 40% 11 15.08.2027 -
Giannis Konstantelias Borussia Dortmund Active 152 / 147 40% 5 15.08.2027 -
Karim Adeyemi Barcelona Active 157 / 158 40% 9 15.08.2027 -
Ez Abde Betis Active 154 / 157 40% 11 14.08.2027 -
Oihan Sancet Eintracht Frankfurt Active 164 / 166 40% 6 14.08.2027 -
Khvicha Kvaratskhelia Inter Active 177 / 167 40% 2 14.08.2027 -
Noël Aséko Eintracht Frankfurt Rejected 132 / 137 72% 2 14.08.2027 Reject
Keita Kosugi Eintracht Frankfurt Active 120 / 132 40% 1 14.08.2027 -
Davide Bartesaghi AC Milan Active 135 / 141 40% 1 14.08.2027 -
Álex Baena Atlético Madrid Active 169 / 165 40% 13 11.08.2027 -
Tuerto Sevilla Active 160 / 154 40% 2 10.08.2027 -
Mason Mount Manchester United Active 154 / 157 40% 2 09.08.2027 -
Enzo Cardozo Virtus Entella Active 111 / 119 40% 2 08.08.2027 -
Jofre Torrents Ajax Active 122 / 135 40% 4 08.08.2027 -
Jobe Bellingham Borussia Dortmund Active 138 / 150 40% 6 07.08.2027 -
Illaijh de Ruijter ADO Den Haag Active 119 / 125 40% 5 07.08.2027 -
Tiago Freitas Benfica Active 120 / 122 40% 2 06.08.2027 -
Ollie Scarles Chelsea Active 129 / 137 40% 6 04.08.2027 -
Anton Stach Leeds United Active 158 / 151 40% 4 03.08.2027 -
Leon Goretzka Aston Villa Lost 152 / 157 40% 8 03.08.2027 -
Maeson King Blackpool Active 109 / 119 40% 3 03.08.2027 -
Kang-In Lee Atlético Madrid Active 168 / 159 40% 1 03.08.2027 -
Leonardo Mendicino Bari Active 119 / 124 40% 1 03.08.2027 -
Caleb Yirenkyi Coventry City Active 135 / 147 40% 4 01.08.2027 -
Lucas Jetten Cambuur Active 120 / 121 40% 3 01.08.2027 -
Givairo Read Feyenoord Active 149 / 150 40% 7 28.07.2027 -
Jonathan De Irastorza Levante Active 129 / 129 40% 1 27.07.2027 -
Kees Smit AZ Active 145 / 149 40% 3 26.07.2027 -
Izan Merino Málaga Active 126 / 131 40% 4 26.07.2027 -
Ismaël Baouf Cambuur Active 124 / 126 40% 4 25.07.2027 -
Sascha Britschgi Catanzaro Active 124 / 126 40% 3 25.07.2027 -
Julian Brandt Ajax Lost 157 / 151 40% 1 21.07.2027 -
Christos Mouzakitis Hull City Active 136 / 140 40% 5 19.07.2027 -
Louis Leroux FC Nantes Active 131 / 132 40% 4 19.07.2027 -
Hugo Ekitiké Liverpool Active 173 / 164 40% 12 13.07.2027 -
John McGinn Aston Villa Lost 158 / 149 40% 1 13.07.2027 -
Kevin Schade Brentford Active 154 / 154 40% 21 12.07.2027 -
Elijah Dijkstra AZ Active 130 / 133 40% 8 10.07.2027 -
Thomas Alderweireld Dijon Active 137 / 138 40% 2 09.07.2027 -
Samuele di Benedetto Zurich Active 120 / 121 40% 3 08.07.2027 -
John McGinn Aston Villa Lost 147 / 151 40% 1 29.06.2027 -
Solly March Brighton Active 151 / 152 40% 2 28.06.2027 -
Julian Brandt Ajax Lost 153 / 148 40% 13 22.06.2027 -
Noah Nartey Olympique Lyonnais Active 137 / 142 40% 1 22.06.2027 -
Đorđe Petrović Bournemouth Active 148 / 150 40% 1 04.06.2027 -
Leo Román Deportivo La Coruña Lost 152 / 148 40% 1 04.06.2027 -
Kostantis Tzolakis Hull City Active 145 / 144 40% 1 04.06.2027 Needs More Info
Max Rosenfelder SC Freiburg Active 142 / 132 72% 1 02.06.2027 Approve
Woo-Yeong Jeong Union Berlin Lost 128 / 138 72% 1 01.06.2027 -
Kevin Fulham Active 152 / 150 40% 1 31.05.2027 -
Igor Jesus Nottingham Forest Active 150 / 144 40% 13 29.05.2027 -
Thulani Billiat Utrecht Active 144 / 136 40% 10 29.05.2027 -
Jorge Pascual Granada Active 131 / 136 40% 5 29.05.2027 -
Fábio Silva Borussia Dortmund Active 149 / 143 40% 15 28.05.2027 -
Georges Mikautadze FC Augsburg Active 151 / 155 40% 21 27.05.2027 -
Kenan Yıldız Juventus Active 164 / 166 40% 3 27.05.2027 -
Kai Havertz Arsenal Active 166 / 160 40% 21 26.05.2027 -
Tani Oluwaseyi Villarreal Active 147 / 143 40% 8 26.05.2027 -
Maximilian Beier Borussia Dortmund Lost 156 / 156 40% 14 25.05.2027 -
Pau Víctor Estrela da Amadora Active 143 / 141 40% 12 25.05.2027 -
Benjamin Šeško Manchester United Active 151 / 156 40% 6 22.05.2027 -
Ferran Torres Paris Saint-Germain Active 166 / 165 40% 9 21.05.2027 -
Rafael Leão Galatasaray Active 161 / 162 40% 9 20.05.2027 -
Christantus Uche Getafe Active 136 / 135 40% 2 19.05.2027 -
Roberto Fernández Braga Active 145 / 140 40% 7 19.05.2027 -
Dávid Strelec Middlesbrough Active 145 / 138 40% 1 19.05.2027 -
Yusi Alavés Active 126 / 131 40% 1 19.05.2027 -
Liam Delap Nottingham Forest Active 150 / 144 40% 5 16.05.2027 -
Isaac Romero Sevilla Active 144 / 140 40% 4 13.05.2027 -
Andrés Martín Racing Santander Active 140 / 135 40% 6 12.05.2027 -
Matheus Cunha Manchester United Active 155 / 156 40% 4 11.05.2027 -
Brennan Johnson Everton Active 151 / 147 40% 9 10.05.2027 -
Hugo Duro Valencia Active 141 / 142 40% 3 10.05.2027 -
Mathys Tel Stade Rennais Active 149 / 144 40% 6 02.05.2027 -
João Simões Sporting CP Active 130 / 137 40% 1 23.04.2027 -
Alpha Touré FC Metz Active 117 / 121 40% 1 14.04.2027 -
Cody Gakpo Liverpool Active 164 / 157 40% 7 06.04.2027 -
Iliman N'Diaye Everton Active 158 / 155 40% 9 31.03.2027 -
Antoine Semenyo Manchester City Active 167 / 159 40% 4 31.03.2027 -
Gabriel Martinelli Arsenal Active 159 / 161 40% 4 27.03.2027 -
Bradley Barcola Liverpool Active 159 / 164 40% 14 25.03.2027 -
Dango Ouattara Brentford Active 149 / 142 40% 5 21.03.2027 -
Rayan Cherki Manchester City Active 170 / 162 40% 14 20.03.2027 -
Rodrygo Real Madrid Active 170 / 165 40% 13 13.03.2027 -
Yussif Saidu Zaragoza Active 128 / 126 40% 2 08.03.2027 -
Joaquin Seys Club Brugge Active 131 / 128 40% 1 07.03.2027 -
Nicolas Jackson Aston Villa Active 144 / 148 40% 2 28.02.2027 -
Benedict Hollerbach Mainz 05 Active 129 / 141 40% 4 24.02.2027 -
Rodrigo Muniz Fulham Active 142 / 140 40% 2 22.02.2027 -
Tim Drexler Red Bull Salzburg Active 121 / 129 40% 2 21.02.2027 -
Mohammed Kudus Tottenham Active 158 / 159 40% 3 20.02.2027 -
Georginio Rutter Manchester City Active 152 / 145 40% 3 16.02.2027 -
Didier Robert FC Augsburg Active 155 / 154 40% 11 09.02.2027 -
Rômulo RB Leipzig Active 150 / 144 40% 1 08.02.2027 -
Julián Álvarez Atlético Madrid Active 178 / 170 40% 9 07.02.2027 -
George Hirst Stoke City Active 130 / 135 40% 1 07.02.2027 -
Thijmen Blokzijl Groningen Active 125 / 127 40% 1 07.02.2027 -
Josha Vagnoman VfB Stuttgart Active 133 / 135 72% 1 11.01.2027 Approve
Fabian Rieder FC Augsburg Active 128 / 136 72% 1 03.01.2027 Approve
Adnan Carrasco FC Nantes Negotiating 151 / 156 64% 1 01.01.2027 Approve
Brahim Díaz Real Madrid Active 148 / 146 40% 4 31.12.2026 -
Ismaïla Sarr Crystal Palace Active 152 / 148 40% 1 31.12.2026 -
Christoph Baumgartner RB Leipzig Active 153 / 150 40% 4 26.12.2026 -
Raphinha Barcelona Active 178 / 178 40% 7 24.12.2026 -
Yeremay Deportivo La Coruña Active 149 / 146 40% 3 22.12.2026 -
Reiss Nelson VfL Wolfsburg Active 153 / 145 40% 2 21.12.2026 -
Tyler Adams Bournemouth Active 158 / 151 40% 1 17.12.2026 -
Maxence Lacroix Chelsea Active 154 / 146 40% 1 17.12.2026 -
Nico Schlotterbeck Borussia Dortmund Active 169 / 163 40% 1 17.12.2026 -
Achraf Hakimi Paris Saint-Germain Active 181 / 178 40% 1 15.12.2026 -
Pedri Barcelona Active 178 / 176 40% 5 12.12.2026 -
Gabri Veiga FC Augsburg Active 142 / 145 40% 6 12.12.2026 -
Osame Sahraoui LOSC Lille Active 139 / 138 40% 2 09.12.2026 -
Karim Konaté Red Bull Salzburg Active 132 / 141 40% 2 01.12.2026 -
Bryan Mbeumo Manchester United Active 157 / 152 40% 4 27.11.2026 -
Eduardo Camavinga Real Madrid Active 167 / 164 40% 4 22.11.2026 -
Angelo Stiller VfB Stuttgart Active 149 / 148 40% 1 21.11.2026 -
Joshua Kimmich Bayern Munich Active 170 / 173 40% 2 19.11.2026 -
Anthony Gordon Barcelona Active 169 / 161 40% 1 10.11.2026 -
Frenkie de Jong Barcelona Active 160 / 168 40% 3 04.11.2026 -
Victor Osimhen RB Leipzig Active 162 / 155 40% 6 02.11.2026 -
Rodolfo Arteaga Liverpool Active 159 / 159 40% 5 02.11.2026 -
Randal Kolo Muani Juventus Active 152 / 149 40% 1 02.11.2026 -
Ángel Correa River Plate Active 138 / 140 40% 1 29.10.2026 -
Michael Olise Bayern Munich Active 176 / 178 40% 4 22.10.2026 -
James Maddison Tottenham Active 157 / 150 40% 1 19.10.2026 -
Boubacar Kamara Aston Villa Active 167 / 159 40% 1 18.10.2026 -
David Raum RB Leipzig Active 158 / 152 40% 1 15.10.2026 -
Vinícius Júnior Real Madrid Active 176 / 170 40% 5 14.10.2026 -
Xavi Simons Tottenham Active 152 / 156 40% 1 12.10.2026 -
Julian Palacios Feyenoord Active 145 / 150 40% 1 10.10.2026 -
Jules Koundé Barcelona Active 166 / 155 40% 1 10.10.2026 -
Aleksandar Pavlović Bayern Munich Active 158 / 158 40% 1 01.10.2026 -
Jérémy Doku Manchester City Active 163 / 164 40% 3 24.09.2026 -
Yuri Alberto Corinthians Active 153 / 133 40% 1 24.09.2026 -
Morgan Rogers Chelsea Active 152 / 157 40% 1 18.09.2026 -
Taty Castellanos West Ham United Active 145 / 144 40% 1 16.09.2026 -
Joško Gvardiol Manchester City Active 155 / 161 40% 1 15.09.2026 -
Fisnik Asllani TSG Hoffenheim Active 134 / 139 40% 3 12.09.2026 -
Enzo Fernández Manchester City Active 168 / 169 40% 2 11.09.2026 -
Carlos Álvarez Club America Active 145 / 141 40% 1 09.09.2026 -
Jonathan Dubasin Osasuna Active 140 / 141 40% 1 07.09.2026 -
Gonzalo Fulham Active 134 / 141 40% 1 06.09.2026 -
Gavin Bazunu Southampton Active 114 / 123 40% 1 03.08.2026 -
Jude Bellingham Real Madrid Active 170 / 174 40% 1 01.08.2026 -